Terminal Aerodrome Forecast
Issued by NWS

Home | Current Version | Previous Version | Text Only | Print | Product List | Glossary On
Versions: 1 2 3 4 5 6 7 8 9 10 11 12 13 14
436
FTUS46 KSGX 251450 AAA
TAFONT
TAF AMD
KONT 251450Z 2515/2618 26007KT P6SM OVC022
     FM251700 25007KT P6SM BKN025
     FM252200 25012G20KT P6SM BKN035
     FM260400 26010KT P6SM OVC025
     FM261100 26007KT P6SM OVC015=

USA.gov is the U.S. government's official web portal to all federal, state and local government web resources and services.